Nearby METAR Reports

 

KGRB - Ashwaubenon, Wisconsin, USA
Distance from station: NW 5mi, 8km
Updated: Tue, 19-Feb-2019 11:53pm CST
Clear
Clear
 Wind from calm
Wind: Calm
Temperature: 12°F , -11°C
Dew Point: 7°F , -14°C
Humidity: 79%
Barometer: 30.37 inHg , 1028.4 hPa
Clouds: Clear
Visibility: 8 miles , 13 km
2019/02/20 05:53 KGRB 200553Z AUTO 00000KT 8SM CLR M11/M14 A3037 RMK AO2 SLP298 T11061139 11061 21133 410331217 56022
KATW - Appleton/Outagam, Wisconsin, USA
Distance from station: WSW 26mi, 42km
Updated: Tue, 19-Feb-2019 11:55pm CST
Mostly cloudy
Mostly cloudy
 Wind from calm
Wind: Calm
Temperature: 18°F , -8°C
Dew Point: 10°F , -12°C
Humidity: 73%
Barometer: 30.32 inHg , 1026.8 hPa
Clouds: Mostly cloudy
Visibility: 10 miles , 16 km
Cloud details: Mostly cloudy 12000 ft
2019/02/20 05:55 KATW 200555Z AUTO 00000KT 10SM BKN120 M08/M12 A3032 RMK AO2
 
KMTW - Manitowac Muni, Wisconsin, USA
Distance from station: SE 29mi, 47km
Updated: Tue, 19-Feb-2019 11:56pm CST
Clear
Clear
 Wind from NW
Wind: NW 3 mph , 6 km/h
Temperature: 12°F , -11°C
Dew Point: 10°F , -12°C
Humidity: 92%
Barometer: 30.37 inHg , 1028.4 hPa
Clouds: Clear
Visibility: 10 miles , 16 km
2019/02/20 05:56 KMTW 200556Z AUTO 32003KT 10SM CLR M11/M12 A3037 RMK AO2 SLP309 T11061122 11050 21117 400111178 58023 FZRANO
KOCQ - Oconto, Wisconsin, USA
Distance from station: NNE 30mi, 49km
Updated: Tue, 19-Feb-2019 11:55pm CST
Clear
Clear
 Wind from calm
Wind: Calm
Temperature: 3°F , -16°C
Dew Point: -0°F , -18°C
Humidity: 85%
Barometer: 30.37 inHg , 1028.4 hPa
Clouds: Clear
Visibility: 10 miles , 16 km
2019/02/20 05:55 KOCQ 200555Z AUTO 00000KT 10SM CLR M16/M18 A3037 RMK AO1 T11581178 11064 21161 410401261
 
KEZS - Shawano Muni, Wisconsin, USA
Distance from station: NW 35mi, 56km
Updated: Wed, 20-Feb-2019 12:15am CST
Clear
Clear
 Wind from calm
Wind: Calm
Temperature: 7°F , -14°C
Dew Point: -0°F , -18°C
Humidity: 72%
Barometer: 30.35 inHg , 1027.8 hPa
Clouds: Clear
Visibility: 10 miles , 16 km
2019/02/20 06:15 KEZS 200615Z AUTO 00000KT 10SM CLR M14/M18 A3035 RMK AO2 T11431185
KCLI - Clintonville, Wisconsin, USA
Distance from station: WNW 36mi, 58km
Updated: Wed, 20-Feb-2019 12:15am CST
Clear
Clear
 Wind from calm
Wind: Calm
Temperature: 7°F , -14°C
Dew Point: 3°F , -16°C
Humidity: 85%
Barometer: 30.34 inHg , 1027.4 hPa
Clouds: Clear
Visibility: 10 miles , 16 km
2019/02/20 06:15 KCLI 200615Z AUTO 00000KT 10SM CLR M14/M16 A3034 RMK AO2 T11361160
 
KOSH - Oshkosh, Wisconsin, USA
Distance from station: SW 41mi, 66km
Updated: Tue, 19-Feb-2019 11:53pm CST
Clear
Clear
 Wind from calm
Wind: Calm
Temperature: 16°F , -9°C
Dew Point: 10°F , -12°C
Humidity: 79%
Barometer: 30.34 inHg , 1027.4 hPa
Clouds: Clear
Visibility: 8 miles , 13 km
2019/02/20 05:53 KOSH 200553Z AUTO 00000KT 8SM CLR M09/M12 A3034 RMK AO2 SLP297 T10891117 11067 21117 410441206 58019
KSUE - Sturgeon Bay, Wisconsin, USA
Distance from station: NE 42mi, 68km
Updated: Tue, 19-Feb-2019 11:56pm CST
Clear
Clear
 Wind from calm
Wind: Calm
Temperature: 10°F , -12°C
Dew Point: 5°F , -15°C
Humidity: 79%
Barometer: 30.38 inHg , 1028.8 hPa
Clouds: Clear
Visibility: 10 miles , 16 km
2019/02/20 05:56 KSUE 200556Z AUTO 00000KT 10SM CLR M12/M15 A3038 RMK AO2 SLP313 T11171150 11078 21122 410331183 56022 FZRANO
 
KSBM - Sheboygan, Wisconsin, USA
Distance from station: SSE 46mi, 75km
Updated: Tue, 19-Feb-2019 11:53pm CST
Partly cloudy
Partly cloudy
 Wind from calm
Wind: Calm
Temperature: 16°F , -9°C
Dew Point: 10°F , -12°C
Humidity: 79%
Barometer: 30.34 inHg , 1027.4 hPa
Clouds: Partly cloudy
Visibility: 8 miles , 13 km
Cloud details: Partly cloudy 12000 ft
2019/02/20 05:53 KSBM 200553Z AUTO 00000KT 8SM SCT120 M09/M12 A3034 RMK AO2 SLP289 T10891117 11056 21139 410331228 58026
KPCZ - Waupaca, Wisconsin, USA
Distance from station: W 48mi, 77km
Updated: Tue, 19-Feb-2019 11:55pm CST
Clear
Clear
 Wind from calm
Wind: Calm
Temperature: 14°F , -10°C
Dew Point: 9°F , -13°C
Humidity: 79%
Barometer: 30.35 inHg , 1027.8 hPa
Clouds: Clear
Visibility: 10 miles , 16 km
2019/02/20 05:55 KPCZ 200555Z AUTO 00000KT 10SM CLR M10/M13 A3035 RMK AO2 T11031127 11051 21110